createdAt,value
2023-10-05T00:01:10.125Z,11.07
2023-10-05T00:03:36.947Z,11.07
2023-10-05T00:06:03.750Z,11.07
2023-10-05T00:08:31.532Z,11.02
2023-10-05T00:10:58.812Z,10.99
2023-10-05T00:13:25.443Z,10.98
2023-10-05T00:15:51.907Z,10.97
2023-10-05T00:18:18.968Z,10.95
2023-10-05T00:20:45.658Z,10.94
2023-10-05T00:23:13.180Z,10.90
2023-10-05T00:25:39.614Z,10.88
2023-10-05T00:28:06.602Z,10.91
2023-10-05T00:30:33.379Z,10.95
2023-10-05T00:33:00.966Z,10.88
2023-10-05T00:35:28.873Z,10.82
2023-10-05T00:37:57.734Z,10.77
2023-10-05T00:40:24.634Z,10.80
2023-10-05T00:42:51.185Z,10.77
2023-10-05T00:45:17.911Z,10.74
2023-10-05T00:47:45.779Z,10.71
2023-10-05T00:50:12.969Z,10.69
2023-10-05T00:52:41.014Z,10.66
2023-10-05T00:55:07.936Z,10.66
2023-10-05T00:57:34.762Z,10.66
2023-10-05T01:00:01.219Z,10.68
2023-10-05T01:02:27.965Z,10.68
2023-10-05T01:04:54.990Z,10.64
2023-10-05T01:07:22.667Z,10.63
2023-10-05T01:09:53.963Z,10.64
2023-10-05T01:12:21.141Z,10.61
2023-10-05T01:14:48.033Z,10.59
2023-10-05T01:17:15.191Z,10.60
2023-10-05T01:19:44.022Z,10.61
2023-10-05T01:22:11.594Z,10.61
2023-10-05T01:24:38.119Z,10.60
2023-10-05T01:27:04.570Z,10.60
2023-10-05T01:29:31.028Z,10.60
2023-10-05T01:31:58.452Z,10.60
2023-10-05T01:34:24.967Z,10.62
2023-10-05T01:36:51.420Z,10.61
2023-10-05T01:39:17.859Z,10.60
2023-10-05T01:41:44.291Z,10.61
2023-10-05T01:44:10.806Z,10.60
2023-10-05T01:46:37.738Z,10.58
2023-10-05T01:49:04.601Z,10.56
2023-10-05T01:51:31.551Z,10.56
2023-10-05T01:53:58.111Z,10.54
2023-10-05T01:56:24.783Z,10.54
2023-10-05T01:58:51.495Z,10.52
2023-10-05T02:01:21.032Z,10.53
2023-10-05T02:03:49.504Z,10.51
2023-10-05T02:06:16.291Z,10.48
2023-10-05T02:08:45.322Z,10.53
2023-10-05T02:11:17.333Z,10.52
2023-10-05T02:13:43.886Z,10.52
2023-10-05T02:16:14.700Z,10.51
2023-10-05T02:18:41.248Z,10.52
2023-10-05T02:21:13.105Z,10.52
2023-10-05T02:23:39.582Z,10.53
2023-10-05T02:26:06.101Z,10.52
2023-10-05T02:28:32.913Z,10.50
2023-10-05T02:30:59.480Z,10.56
2023-10-05T02:33:26.259Z,10.51
2023-10-05T02:35:52.999Z,10.53
2023-10-05T02:38:19.419Z,10.55
2023-10-05T02:40:45.857Z,10.54
2023-10-05T02:43:12.576Z,10.56
2023-10-05T02:45:39.078Z,10.56
2023-10-05T02:48:06.923Z,10.60
2023-10-05T02:50:34.154Z,10.57
2023-10-05T02:53:00.909Z,10.60
2023-10-05T02:55:27.390Z,10.64
2023-10-05T02:57:55.338Z,10.59
2023-10-05T03:00:21.856Z,10.58
2023-10-05T03:02:48.337Z,10.57
2023-10-05T03:05:15.676Z,10.58
2023-10-05T03:07:42.275Z,10.64
2023-10-05T03:10:09.198Z,10.62
2023-10-05T03:12:35.651Z,10.67
2023-10-05T03:15:03.682Z,10.67
2023-10-05T03:17:30.205Z,10.67
2023-10-05T03:19:56.960Z,10.68
2023-10-05T03:22:24.934Z,10.67
2023-10-05T03:24:51.786Z,10.66
2023-10-05T03:27:18.249Z,10.69
2023-10-05T03:29:44.731Z,10.70
2023-10-05T03:32:11.193Z,10.71
2023-10-05T03:34:38.286Z,10.75
2023-10-05T03:37:05.923Z,10.77
2023-10-05T03:39:33.205Z,10.76
2023-10-05T03:41:59.783Z,10.75
2023-10-05T03:44:28.018Z,10.76
2023-10-05T03:46:54.444Z,10.76
2023-10-05T03:49:21.375Z,10.75
2023-10-05T03:51:48.091Z,10.76
2023-10-05T03:54:14.533Z,10.71
2023-10-05T03:56:40.990Z,10.74
2023-10-05T03:59:09.074Z,10.76
2023-10-05T04:01:35.749Z,10.77
2023-10-05T04:04:02.376Z,10.76
2023-10-05T04:06:29.159Z,10.78
2023-10-05T04:08:56.013Z,10.76
2023-10-05T04:11:25.021Z,10.70
2023-10-05T04:13:51.471Z,10.70
2023-10-05T04:16:18.158Z,10.65
2023-10-05T04:18:45.504Z,10.60
2023-10-05T04:21:11.968Z,10.66
2023-10-05T04:23:38.441Z,10.61
2023-10-05T04:26:05.110Z,10.60
2023-10-05T04:28:31.929Z,10.68
2023-10-05T04:30:58.666Z,10.68
2023-10-05T04:33:25.349Z,10.69
2023-10-05T04:35:56.634Z,10.69
2023-10-05T04:38:23.908Z,10.70
2023-10-05T04:40:53.723Z,10.71
2023-10-05T04:43:20.517Z,10.73
2023-10-05T04:45:47.150Z,10.73
2023-10-05T04:48:14.422Z,10.70
2023-10-05T04:50:41.811Z,10.76
2023-10-05T04:53:09.082Z,10.76
2023-10-05T04:55:35.852Z,10.80
2023-10-05T04:58:02.365Z,10.82
2023-10-05T05:00:29.906Z,10.85
2023-10-05T05:02:56.794Z,10.89
2023-10-05T05:05:23.321Z,10.86
2023-10-05T05:07:49.762Z,10.88
2023-10-05T05:10:16.526Z,10.87
2023-10-05T05:12:43.034Z,10.91
2023-10-05T05:15:09.910Z,10.94
2023-10-05T05:17:36.457Z,10.91
2023-10-05T05:20:03.013Z,10.95
2023-10-05T05:22:29.637Z,10.97
2023-10-05T05:24:56.136Z,10.95
2023-10-05T05:27:24.000Z,11.02
2023-10-05T05:29:50.474Z,11.00
2023-10-05T05:32:16.968Z,11.04
2023-10-05T05:34:44.635Z,11.11
2023-10-05T05:37:14.518Z,11.10
2023-10-05T05:39:42.365Z,11.09
2023-10-05T05:42:10.445Z,11.08
2023-10-05T05:44:36.889Z,11.16
2023-10-05T05:47:03.934Z,11.16
2023-10-05T05:49:30.512Z,11.26
2023-10-05T05:51:56.983Z,11.31
2023-10-05T05:54:24.563Z,11.33
2023-10-05T05:56:53.807Z,11.38
2023-10-05T05:59:20.298Z,11.43
2023-10-05T06:01:46.819Z,11.49
2023-10-05T06:04:14.426Z,11.57
2023-10-05T06:06:41.250Z,11.59
2023-10-05T06:09:07.725Z,11.64
2023-10-05T06:11:34.478Z,11.69
2023-10-05T06:14:02.458Z,11.70
2023-10-05T06:16:29.242Z,11.75
2023-10-05T06:18:55.876Z,11.82
2023-10-05T06:21:22.609Z,11.88
2023-10-05T06:23:51.411Z,11.87
2023-10-05T06:26:17.906Z,11.91
2023-10-05T06:28:44.703Z,12.01
2023-10-05T06:31:11.991Z,12.01
2023-10-05T06:33:38.695Z,12.03
2023-10-05T06:36:05.382Z,12.09
2023-10-05T06:38:31.835Z,12.13
2023-10-05T06:40:58.257Z,12.22
2023-10-05T06:43:24.753Z,12.23
2023-10-05T06:45:51.239Z,12.28
2023-10-05T06:48:17.738Z,12.31
2023-10-05T06:50:44.209Z,12.38
2023-10-05T06:53:10.688Z,12.40
2023-10-05T06:55:37.252Z,12.46
2023-10-05T06:58:05.415Z,12.49
2023-10-05T07:00:32.206Z,12.54
2023-10-05T07:02:58.726Z,12.55
2023-10-05T07:05:26.276Z,12.60
2023-10-05T07:07:52.796Z,12.64
2023-10-05T07:10:19.585Z,12.68
2023-10-05T07:12:46.070Z,12.78
2023-10-05T07:15:12.525Z,12.87
2023-10-05T07:17:39.101Z,12.87
2023-10-05T07:20:06.363Z,12.93
2023-10-05T07:22:32.792Z,12.98
2023-10-05T07:24:59.490Z,13.02
2023-10-05T07:27:25.941Z,13.09
2023-10-05T07:29:53.124Z,13.10
2023-10-05T07:32:19.948Z,13.09
2023-10-05T07:34:48.798Z,13.11
2023-10-05T07:37:18.554Z,13.13
2023-10-05T07:39:46.303Z,13.13
2023-10-05T07:42:12.750Z,13.15
2023-10-05T07:44:40.586Z,13.19
2023-10-05T07:47:07.701Z,13.28
2023-10-05T07:49:36.594Z,13.48
2023-10-05T07:52:04.933Z,13.57
2023-10-05T07:54:32.572Z,13.63
2023-10-05T07:56:59.374Z,13.70
2023-10-05T07:59:27.199Z,13.81
2023-10-05T08:01:53.798Z,13.91
2023-10-05T08:04:20.939Z,13.98
2023-10-05T08:06:47.809Z,14.00
2023-10-05T08:09:14.582Z,14.14
2023-10-05T08:11:40.984Z,14.18
2023-10-05T08:14:07.827Z,14.25
2023-10-05T08:16:34.437Z,14.23
2023-10-05T08:19:01.588Z,14.24
2023-10-05T08:21:28.063Z,14.24
2023-10-05T08:23:54.875Z,14.31
2023-10-05T08:26:21.393Z,14.29
2023-10-05T08:28:47.859Z,14.35
2023-10-05T08:31:14.446Z,14.44
2023-10-05T08:33:41.256Z,14.51
2023-10-05T08:36:10.930Z,14.49
2023-10-05T08:38:37.316Z,14.48
2023-10-05T08:41:04.085Z,14.49
2023-10-05T08:43:31.218Z,14.54
2023-10-05T08:46:03.689Z,14.49
2023-10-05T08:48:31.128Z,14.50
2023-10-05T08:51:02.918Z,14.45
2023-10-05T08:53:29.436Z,14.47
2023-10-05T08:55:58.607Z,14.61
2023-10-05T08:58:25.034Z,14.79
2023-10-05T09:00:51.622Z,14.98
2023-10-05T09:03:18.405Z,15.11
2023-10-05T09:06:01.940Z,15.29
2023-10-05T09:08:28.445Z,15.38
2023-10-05T09:11:02.162Z,15.49
2023-10-05T09:13:43.806Z,15.51
2023-10-05T09:16:10.411Z,15.58
2023-10-05T09:18:47.965Z,15.56
2023-10-05T09:21:14.670Z,15.55
2023-10-05T09:23:41.361Z,15.63
2023-10-05T09:26:22.450Z,15.69
2023-10-05T09:28:48.860Z,15.72
2023-10-05T09:31:18.862Z,15.72
2023-10-05T09:33:50.714Z,15.77
2023-10-05T09:36:18.039Z,15.87
2023-10-05T09:38:45.271Z,15.85
2023-10-05T09:41:15.678Z,15.94
2023-10-05T09:43:44.250Z,15.93
2023-10-05T09:46:12.163Z,15.88
2023-10-05T09:48:40.160Z,15.83
2023-10-05T09:51:10.714Z,15.70
2023-10-05T09:53:41.222Z,15.77
2023-10-05T09:56:08.592Z,15.69
2023-10-05T09:58:35.912Z,15.63
2023-10-05T10:01:02.382Z,15.56
2023-10-05T10:03:28.873Z,15.58
2023-10-05T10:06:00.995Z,15.55
2023-10-05T10:08:31.986Z,15.58
2023-10-05T10:11:03.576Z,15.49
2023-10-05T10:13:35.271Z,15.46
2023-10-05T10:16:13.885Z,15.50
2023-10-05T10:18:41.398Z,15.47
2023-10-05T10:21:19.470Z,15.49
2023-10-05T10:23:51.652Z,15.49
2023-10-05T10:26:18.555Z,15.51
2023-10-05T10:28:52.203Z,15.53
2023-10-05T10:31:25.839Z,15.51
2023-10-05T10:33:53.470Z,15.43
2023-10-05T10:36:40.711Z,15.37
2023-10-05T10:39:08.165Z,15.31
2023-10-05T10:41:57.573Z,15.31
2023-10-05T10:44:24.099Z,15.25
2023-10-05T10:46:51.586Z,15.16
2023-10-05T10:49:18.106Z,15.07
2023-10-05T10:51:44.785Z,14.84
2023-10-05T10:54:11.784Z,14.71
2023-10-05T10:56:41.275Z,14.51
2023-10-05T10:59:08.195Z,14.55
2023-10-05T11:01:36.647Z,14.55
2023-10-05T11:04:04.903Z,14.45
2023-10-05T11:06:38.607Z,14.34
2023-10-05T11:09:05.169Z,14.41
2023-10-05T11:11:37.811Z,14.33
2023-10-05T11:14:04.558Z,14.42
2023-10-05T11:16:35.235Z,14.36
2023-10-05T11:19:01.827Z,14.35
2023-10-05T11:21:28.404Z,14.33
2023-10-05T11:23:55.692Z,14.28
2023-10-05T11:26:22.176Z,14.19
2023-10-05T11:28:49.423Z,14.16
2023-10-05T11:31:22.403Z,14.21
2023-10-05T11:34:21.088Z,14.19
2023-10-05T11:36:40.345Z,14.24
2023-10-05T11:39:07.833Z,14.30
2023-10-05T11:41:35.699Z,14.36
2023-10-05T11:44:02.223Z,14.46
2023-10-05T11:46:45.343Z,14.53
2023-10-05T11:49:14.494Z,14.63
2023-10-05T11:51:41.159Z,14.75
2023-10-05T11:54:08.025Z,14.84
2023-10-05T11:56:34.986Z,14.90
2023-10-05T11:59:01.599Z,14.88
2023-10-05T12:01:28.583Z,14.85
2023-10-05T12:03:55.168Z,14.88
2023-10-05T12:06:21.801Z,14.82
2023-10-05T12:08:48.349Z,14.69
2023-10-05T12:11:14.754Z,14.60
2023-10-05T12:13:41.466Z,14.46
2023-10-05T12:16:08.166Z,14.28
2023-10-05T12:18:34.802Z,14.33
2023-10-05T12:21:02.071Z,14.39
2023-10-05T12:23:30.007Z,14.40
2023-10-05T12:25:56.479Z,14.34
2023-10-05T12:28:24.173Z,14.37
2023-10-05T12:30:51.701Z,14.46
2023-10-05T12:33:18.304Z,14.50
2023-10-05T12:35:47.336Z,14.58
2023-10-05T12:38:13.996Z,14.54
2023-10-05T12:40:40.876Z,14.64
2023-10-05T12:45:43.455Z,14.74
2023-10-05T12:48:10.598Z,14.74
2023-10-05T12:50:37.054Z,14.75
2023-10-05T12:53:03.773Z,14.71
2023-10-05T12:55:31.133Z,14.78
2023-10-05T12:57:57.817Z,14.76
2023-10-05T13:00:25.859Z,14.68
2023-10-05T13:02:56.065Z,14.67
2023-10-05T13:05:30.441Z,14.56
2023-10-05T13:07:59.526Z,14.51
2023-10-05T13:10:26.313Z,14.44
2023-10-05T13:12:55.835Z,14.11
2023-10-05T13:15:22.631Z,13.74
2023-10-05T13:17:49.090Z,13.62
2023-10-05T13:20:15.583Z,13.37
2023-10-05T13:22:42.664Z,13.25
2023-10-05T13:25:09.475Z,13.03
2023-10-05T13:27:36.067Z,12.88
2023-10-05T13:30:05.058Z,12.84
2023-10-05T13:32:31.670Z,12.79
2023-10-05T13:34:59.704Z,12.74
2023-10-05T13:37:28.116Z,12.63
2023-10-05T13:39:54.987Z,12.55
2023-10-05T13:42:21.486Z,12.56
2023-10-05T13:44:48.936Z,12.37
2023-10-05T13:47:15.701Z,12.39
2023-10-05T13:49:42.247Z,12.50
2023-10-05T13:52:09.180Z,12.43
2023-10-05T13:54:36.022Z,12.37
2023-10-05T13:57:03.289Z,12.42
2023-10-05T13:59:30.063Z,12.45
2023-10-05T14:01:56.932Z,12.43
2023-10-05T14:04:23.469Z,12.51
2023-10-05T14:06:50.384Z,12.60
2023-10-05T14:09:16.914Z,12.67
2023-10-05T14:11:44.597Z,12.75
2023-10-05T14:14:12.370Z,12.80
2023-10-05T14:16:42.300Z,12.79
2023-10-05T14:19:09.150Z,12.88
2023-10-05T14:21:36.111Z,12.89
2023-10-05T14:24:02.647Z,12.98
2023-10-05T14:26:29.100Z,13.01
2023-10-05T14:28:55.881Z,12.97
2023-10-05T14:31:25.529Z,13.00
2023-10-05T14:33:52.094Z,12.95
2023-10-05T14:36:19.036Z,12.95
2023-10-05T14:38:45.737Z,13.06
2023-10-05T14:41:12.423Z,13.14
2023-10-05T14:43:38.938Z,13.19
2023-10-05T14:46:05.372Z,13.13
2023-10-05T14:48:31.973Z,13.06
2023-10-05T14:51:02.624Z,13.08
2023-10-05T14:53:29.037Z,13.05
2023-10-05T14:55:56.661Z,13.03
2023-10-05T14:58:24.030Z,13.07
2023-10-05T15:00:50.529Z,13.05
2023-10-05T15:03:17.369Z,13.11
2023-10-05T15:05:44.387Z,13.16
2023-10-05T15:08:11.371Z,13.12
2023-10-05T15:10:37.906Z,13.13
2023-10-05T15:13:04.552Z,13.17
2023-10-05T15:15:31.451Z,13.20
2023-10-05T15:18:00.014Z,13.18
2023-10-05T15:20:26.518Z,13.15
2023-10-05T15:22:53.188Z,13.04
2023-10-05T15:25:21.208Z,13.05
2023-10-05T15:27:49.871Z,12.99
2023-10-05T15:30:17.965Z,12.97
2023-10-05T15:32:46.263Z,12.88
2023-10-05T15:35:15.570Z,12.84
2023-10-05T15:37:44.860Z,12.78
2023-10-05T15:40:12.831Z,12.80
2023-10-05T15:42:53.424Z,12.74
2023-10-05T15:45:24.700Z,12.70
2023-10-05T15:47:52.993Z,12.66
2023-10-05T15:50:22.613Z,12.58
2023-10-05T15:52:58.540Z,12.54
2023-10-05T15:55:26.139Z,12.53
2023-10-05T15:57:53.227Z,12.48
2023-10-05T16:00:21.126Z,12.45
2023-10-05T16:02:47.648Z,12.42
2023-10-05T16:05:16.848Z,12.38
2023-10-05T16:07:44.334Z,12.31
2023-10-05T16:10:11.212Z,12.24
2023-10-05T16:12:38.347Z,12.20
2023-10-05T16:15:06.518Z,12.18
2023-10-05T16:17:33.077Z,12.10
2023-10-05T16:19:59.578Z,12.08
2023-10-05T16:22:26.884Z,12.04
2023-10-05T16:24:53.354Z,12.01
2023-10-05T16:27:19.896Z,11.97
2023-10-05T16:29:46.392Z,12.02
2023-10-05T16:32:12.922Z,11.89
2023-10-05T16:34:39.394Z,11.94
2023-10-05T16:37:05.851Z,11.91
2023-10-05T16:39:32.328Z,11.90
2023-10-05T16:41:58.798Z,11.87
2023-10-05T16:44:25.250Z,11.82
2023-10-05T16:46:51.748Z,11.79
2023-10-05T16:49:18.269Z,11.78
2023-10-05T16:51:44.737Z,11.70
2023-10-05T16:54:11.447Z,11.69
2023-10-05T16:56:53.301Z,11.62
2023-10-05T16:59:21.239Z,11.62
2023-10-05T17:01:47.818Z,11.57
2023-10-05T17:04:16.379Z,11.54
2023-10-05T17:06:43.097Z,11.51
2023-10-05T17:09:10.123Z,11.51
2023-10-05T17:11:39.919Z,11.46
2023-10-05T17:14:06.647Z,11.43
2023-10-05T17:16:33.702Z,11.43
2023-10-05T17:19:00.390Z,11.38
2023-10-05T17:21:29.937Z,11.36
2023-10-05T17:23:56.777Z,11.32
2023-10-05T17:26:29.895Z,11.34
2023-10-05T17:28:56.468Z,11.29
2023-10-05T17:31:23.107Z,11.27
2023-10-05T17:33:49.661Z,11.28
2023-10-05T17:36:16.148Z,11.25
2023-10-05T17:38:42.690Z,11.25
2023-10-05T17:41:09.283Z,11.25
2023-10-05T17:43:35.990Z,11.20
2023-10-05T17:46:02.494Z,11.18
2023-10-05T17:48:28.904Z,11.16
2023-10-05T17:50:56.248Z,11.19
2023-10-05T17:53:27.414Z,11.16
2023-10-05T17:55:54.866Z,11.18
2023-10-05T17:58:21.500Z,11.20
2023-10-05T18:00:48.241Z,11.23
2023-10-05T18:03:15.189Z,11.26
2023-10-05T18:05:41.655Z,11.26
2023-10-05T18:08:08.056Z,11.38
2023-10-05T18:10:40.842Z,11.35
2023-10-05T18:13:07.602Z,11.33
2023-10-05T18:15:33.997Z,11.35
2023-10-05T18:18:00.459Z,11.41
2023-10-05T18:20:26.919Z,11.45
2023-10-05T18:22:53.555Z,11.47
2023-10-05T18:25:20.169Z,11.53
2023-10-05T18:27:46.755Z,11.52
2023-10-05T18:30:13.575Z,11.50
2023-10-05T18:32:42.684Z,11.50
2023-10-05T18:35:09.506Z,11.45
2023-10-05T18:37:36.033Z,11.42
2023-10-05T18:40:02.507Z,11.37
2023-10-05T18:42:28.894Z,11.39
2023-10-05T18:44:55.362Z,11.37
2023-10-05T18:47:21.801Z,11.40
2023-10-05T18:49:48.206Z,11.38
2023-10-05T18:52:14.604Z,11.43
2023-10-05T18:54:41.019Z,11.43
2023-10-05T18:57:07.421Z,11.48
2023-10-05T18:59:33.817Z,11.48
2023-10-05T19:02:00.606Z,11.46
2023-10-05T19:04:27.270Z,11.42
2023-10-05T19:06:54.307Z,11.40
2023-10-05T19:09:20.593Z,11.41
2023-10-05T19:11:47.003Z,11.39
2023-10-05T19:14:13.608Z,11.37
2023-10-05T19:16:40.093Z,11.34
2023-10-05T19:19:07.425Z,11.32
2023-10-05T19:21:34.117Z,11.31
2023-10-05T19:24:00.524Z,11.30
2023-10-05T19:26:27.024Z,11.33
2023-10-05T19:28:53.584Z,11.27
2023-10-05T19:31:20.764Z,11.29
2023-10-05T19:33:47.473Z,11.26
2023-10-05T19:36:13.934Z,11.26
2023-10-05T19:38:41.377Z,11.27
2023-10-05T19:41:09.838Z,11.23
2023-10-05T19:43:36.273Z,11.23
2023-10-05T19:46:02.776Z,11.17
2023-10-05T19:48:29.244Z,11.14
2023-10-05T19:50:55.740Z,11.15
2023-10-05T19:53:22.187Z,11.17
2023-10-05T19:55:56.567Z,11.16
2023-10-05T19:58:23.230Z,11.12
2023-10-05T20:00:49.882Z,11.10
2023-10-05T20:03:16.545Z,11.11
2023-10-05T20:05:43.124Z,11.09
2023-10-05T20:08:09.573Z,11.10
2023-10-05T20:10:36.734Z,11.12
2023-10-05T20:13:03.545Z,11.09
2023-10-05T20:15:30.090Z,11.08
2023-10-05T20:17:56.543Z,11.06
2023-10-05T20:20:25.634Z,11.11
2023-10-05T20:22:53.269Z,11.07
2023-10-05T20:25:20.055Z,11.07
2023-10-05T20:27:46.483Z,11.07
2023-10-05T20:30:13.380Z,11.10
2023-10-05T20:32:40.059Z,11.12
2023-10-05T20:35:09.005Z,11.12
2023-10-05T20:37:36.040Z,11.13
2023-10-05T20:40:02.946Z,11.13
2023-10-05T20:42:29.628Z,11.15
2023-10-05T20:44:56.063Z,11.16
2023-10-05T20:47:22.679Z,11.18
2023-10-05T20:49:49.421Z,11.20
2023-10-05T20:52:16.334Z,11.23
2023-10-05T20:54:43.095Z,11.25
2023-10-05T20:57:09.720Z,11.25
2023-10-05T20:59:36.179Z,11.27
2023-10-05T21:02:02.711Z,11.31
2023-10-05T21:04:30.121Z,11.34
2023-10-05T21:06:56.915Z,11.35
2023-10-05T21:09:24.067Z,11.37
2023-10-05T21:11:51.280Z,11.39
2023-10-05T21:14:20.115Z,11.41
2023-10-05T21:16:47.435Z,11.41
2023-10-05T21:19:14.172Z,11.44
2023-10-05T21:21:40.689Z,11.43
2023-10-05T21:24:08.210Z,11.45
2023-10-05T21:26:35.841Z,11.46
2023-10-05T21:29:04.058Z,11.46
2023-10-05T21:31:33.122Z,11.48
2023-10-05T21:34:01.300Z,11.46
2023-10-05T21:36:28.000Z,11.47
2023-10-05T21:38:56.841Z,11.46
2023-10-05T21:41:23.337Z,11.50
2023-10-05T21:43:50.064Z,11.49
2023-10-05T21:46:19.982Z,11.50
2023-10-05T21:48:46.842Z,11.50
2023-10-05T21:51:15.319Z,11.52
2023-10-05T21:53:43.340Z,11.52
2023-10-05T21:56:10.462Z,11.55
2023-10-05T21:58:41.645Z,11.56
2023-10-05T22:01:08.168Z,11.55
2023-10-05T22:03:35.789Z,11.54
2023-10-05T22:06:02.428Z,11.51
2023-10-05T22:08:28.802Z,11.50
2023-10-05T22:10:56.025Z,11.53
2023-10-05T22:13:23.296Z,11.53
2023-10-05T22:15:49.747Z,11.52
2023-10-05T22:18:16.464Z,11.55
2023-10-05T22:20:43.337Z,11.55
2023-10-05T22:23:11.433Z,11.55
2023-10-05T22:25:40.351Z,11.55
2023-10-05T22:28:08.572Z,11.56
2023-10-05T22:30:35.708Z,11.53
2023-10-05T22:33:02.306Z,11.54
2023-10-05T22:35:29.250Z,11.54
2023-10-05T22:37:56.014Z,11.54
2023-10-05T22:40:22.932Z,11.56
2023-10-05T22:42:49.327Z,11.55
2023-10-05T22:45:16.122Z,11.52
2023-10-05T22:47:43.689Z,11.54
2023-10-05T22:50:10.780Z,11.55
2023-10-05T22:52:41.144Z,11.55
2023-10-05T22:55:07.986Z,11.57
2023-10-05T22:57:34.622Z,11.59
2023-10-05T23:00:01.127Z,11.56
2023-10-05T23:02:27.877Z,11.54
2023-10-05T23:04:54.580Z,11.53
2023-10-05T23:07:21.075Z,11.53
2023-10-05T23:09:50.177Z,11.53
2023-10-05T23:12:17.510Z,11.52
2023-10-05T23:14:44.990Z,11.54
2023-10-05T23:17:12.440Z,11.54
2023-10-05T23:19:39.165Z,11.55
2023-10-05T23:22:06.766Z,11.55
2023-10-05T23:24:33.594Z,11.54
2023-10-05T23:27:00.104Z,11.53
2023-10-05T23:29:29.744Z,11.55
2023-10-05T23:31:58.108Z,11.55
2023-10-05T23:34:30.232Z,11.56
2023-10-05T23:36:57.207Z,11.57
2023-10-05T23:39:26.964Z,11.57
2023-10-05T23:41:56.946Z,11.58
2023-10-05T23:44:26.826Z,11.58
2023-10-05T23:47:07.200Z,11.59
2023-10-05T23:49:42.875Z,11.58
2023-10-05T23:52:09.583Z,11.58
2023-10-05T23:54:36.056Z,11.60
2023-10-05T23:57:02.580Z,11.61
2023-10-05T23:59:29.282Z,11.62
